createdAt,value
2018-01-24T00:01:30.713Z,101650.41
2018-01-24T00:03:59.809Z,101635.68
2018-01-24T00:06:28.115Z,101628.70
2018-01-24T00:08:56.433Z,101642.50
2018-01-24T00:11:24.747Z,101645.78
2018-01-24T00:13:53.077Z,101649.67
2018-01-24T00:16:23.143Z,101663.14
2018-01-24T00:18:51.463Z,101663.02
2018-01-24T00:21:20.059Z,101643.22
2018-01-24T00:23:48.409Z,101647.00
2018-01-24T00:26:16.707Z,101646.64
2018-01-24T00:28:45.879Z,101659.98
2018-01-24T00:31:14.203Z,101658.61
2018-01-24T00:33:42.517Z,101659.42
2018-01-24T00:36:10.821Z,101660.81
2018-01-24T00:38:39.161Z,101664.51
2018-01-24T00:41:07.450Z,101667.46
2018-01-24T00:43:35.813Z,101670.92
2018-01-24T00:46:04.197Z,101667.73
2018-01-24T00:48:32.540Z,101674.83
2018-01-24T00:51:00.879Z,101674.33
2018-01-24T00:53:29.186Z,101675.57
2018-01-24T00:55:57.539Z,101679.58
2018-01-24T00:58:25.848Z,101674.73
2018-01-24T01:00:54.151Z,101672.84
2018-01-24T01:03:22.473Z,101672.34
2018-01-24T01:05:50.758Z,101658.64
2018-01-24T01:08:19.288Z,101667.78
2018-01-24T01:10:47.607Z,101669.62
2018-01-24T01:13:15.918Z,101667.78
2018-01-24T01:15:44.221Z,101666.63
2018-01-24T01:18:12.531Z,101662.48
2018-01-24T01:20:41.663Z,101664.92
2018-01-24T01:23:10.053Z,101666.67
2018-01-24T01:25:38.535Z,101658.14
2018-01-24T01:28:06.838Z,101665.64
2018-01-24T01:30:35.131Z,101662.42
2018-01-24T01:33:03.478Z,101658.77
2018-01-24T01:35:31.796Z,101660.71
2018-01-24T01:38:00.093Z,101652.78
2018-01-24T01:40:28.429Z,101654.34
2018-01-24T01:42:56.727Z,101640.98
2018-01-24T01:45:25.039Z,101647.57
2018-01-24T01:47:53.347Z,101639.17
2018-01-24T01:50:22.426Z,101643.17
2018-01-24T01:52:50.738Z,101647.14
2018-01-24T01:55:19.152Z,101648.76
2018-01-24T01:57:47.518Z,101648.30
2018-01-24T02:00:15.811Z,101647.77
2018-01-24T02:02:44.197Z,101649.16
2018-01-24T02:05:12.513Z,101640.99
2018-01-24T02:07:40.841Z,101643.30
2018-01-24T02:10:09.117Z,101643.60
2018-01-24T02:12:38.429Z,101640.78
2018-01-24T02:15:06.813Z,101644.56
2018-01-24T02:17:35.103Z,101636.91
2018-01-24T02:20:03.387Z,101639.16
2018-01-24T02:22:31.758Z,101634.00
2018-01-24T02:25:00.085Z,101638.52
2018-01-24T02:27:28.418Z,101635.80
2018-01-24T02:29:56.806Z,101627.75
2018-01-24T02:32:25.110Z,101635.27
2018-01-24T02:34:53.826Z,101630.57
2018-01-24T02:37:22.089Z,101623.06
2018-01-24T02:39:50.417Z,101625.31
2018-01-24T02:42:19.500Z,101614.12
2018-01-24T02:44:47.807Z,101617.95
2018-01-24T02:47:16.895Z,101611.40
2018-01-24T02:49:45.961Z,101604.44
2018-01-24T02:52:14.329Z,101603.44
2018-01-24T02:54:43.378Z,101598.45
2018-01-24T02:57:12.519Z,101595.55
2018-01-24T02:59:41.160Z,101585.78
2018-01-24T03:02:10.237Z,101589.23
2018-01-24T03:04:38.557Z,101581.67
2018-01-24T03:07:06.887Z,101582.22
2018-01-24T03:09:35.195Z,101579.23
2018-01-24T03:12:03.560Z,101580.70
2018-01-24T03:14:31.944Z,101583.19
2018-01-24T03:17:00.259Z,101585.08
2018-01-24T03:19:29.352Z,101570.91
2018-01-24T03:21:57.688Z,101567.41
2018-01-24T03:24:26.029Z,101569.80
2018-01-24T03:26:54.334Z,101568.45
2018-01-24T03:29:23.550Z,101577.41
2018-01-24T03:31:51.851Z,101562.70
2018-01-24T03:34:20.156Z,101567.90
2018-01-24T03:36:50.026Z,101575.97
2018-01-24T03:39:18.389Z,101562.68
2018-01-24T03:41:46.774Z,101553.54
2018-01-24T03:44:15.306Z,101551.09
2018-01-24T03:46:43.621Z,101551.31
2018-01-24T03:49:12.708Z,101551.34
2018-01-24T03:51:41.778Z,101550.74
2018-01-24T03:54:10.067Z,101545.61
2018-01-24T03:56:40.660Z,101543.13
2018-01-24T03:59:09.010Z,101539.05
2018-01-24T04:01:38.111Z,101529.30
2018-01-24T04:04:07.223Z,101529.52
2018-01-24T04:06:35.628Z,101527.17
2018-01-24T04:09:03.926Z,101527.48
2018-01-24T04:11:32.262Z,101526.56
2018-01-24T04:14:02.135Z,101515.34
2018-01-24T04:16:31.232Z,101517.12
2018-01-24T04:18:59.549Z,101514.47
2018-01-24T04:21:27.869Z,101512.52
2018-01-24T04:23:56.171Z,101502.98
2018-01-24T04:26:24.506Z,101498.67
2018-01-24T04:28:52.841Z,101499.53
2018-01-24T04:31:21.938Z,101500.45
2018-01-24T04:33:50.238Z,101494.64
2018-01-24T04:36:18.573Z,101488.89
2018-01-24T04:38:46.898Z,101482.09
2018-01-24T04:41:15.263Z,101485.20
2018-01-24T04:43:43.622Z,101471.73
2018-01-24T04:46:12.002Z,101485.45
2018-01-24T04:48:40.312Z,101492.67
2018-01-24T04:51:08.618Z,101486.48
2018-01-24T04:53:36.933Z,101478.66
2018-01-24T04:56:06.046Z,101481.23
2018-01-24T04:58:34.404Z,101476.20
2018-01-24T05:01:03.496Z,101467.64
2018-01-24T05:03:31.792Z,101481.97
2018-01-24T05:06:00.868Z,101482.89
2018-01-24T05:08:29.202Z,101462.60
2018-01-24T05:10:57.504Z,101471.47
2018-01-24T05:13:25.855Z,101472.30
2018-01-24T05:15:54.868Z,101466.63
2018-01-24T05:18:23.236Z,101456.31
2018-01-24T05:20:51.888Z,101453.11
2018-01-24T05:23:20.202Z,101454.03
2018-01-24T05:25:48.592Z,101458.98
2018-01-24T05:28:16.903Z,101461.14
2018-01-24T05:30:45.244Z,101463.92
2018-01-24T05:33:13.544Z,101460.92
2018-01-24T05:35:41.852Z,101458.45
2018-01-24T05:38:10.164Z,101457.84
2018-01-24T05:40:38.508Z,101463.72
2018-01-24T05:43:06.866Z,101459.70
2018-01-24T05:45:35.204Z,101444.13
2018-01-24T05:48:03.521Z,101440.75
2018-01-24T05:50:32.116Z,101450.11
2018-01-24T05:53:00.501Z,101445.99
2018-01-24T05:55:28.804Z,101431.57
2018-01-24T05:57:57.181Z,101434.36
2018-01-24T06:00:25.738Z,101435.30
2018-01-24T06:02:54.884Z,101434.39
2018-01-24T06:05:23.192Z,101434.05
2018-01-24T06:07:51.494Z,101422.94
2018-01-24T06:10:20.604Z,101420.78
2018-01-24T06:12:48.914Z,101424.51
2018-01-24T06:15:17.242Z,101435.95
2018-01-24T06:17:45.604Z,101439.98
2018-01-24T06:20:14.054Z,101422.97
2018-01-24T06:22:42.426Z,101418.95
2018-01-24T06:25:10.722Z,101431.32
2018-01-24T06:27:39.034Z,101422.77
2018-01-24T06:30:07.334Z,101425.35
2018-01-24T06:32:35.668Z,101414.53
2018-01-24T06:35:04.104Z,101408.11
2018-01-24T06:37:32.436Z,101398.22
2018-01-24T06:40:00.782Z,101396.88
2018-01-24T06:42:29.845Z,101398.53
2018-01-24T06:44:58.162Z,101384.52
2018-01-24T06:47:27.288Z,101385.23
2018-01-24T06:49:55.640Z,101385.23
2018-01-24T06:52:24.708Z,101382.87
2018-01-24T06:54:53.022Z,101379.87
2018-01-24T06:57:22.090Z,101375.95
2018-01-24T06:59:50.429Z,101372.66
2018-01-24T07:02:18.754Z,101377.61
2018-01-24T07:04:47.400Z,101373.59
2018-01-24T07:07:15.708Z,101371.32
2018-01-24T07:09:44.360Z,101375.95
2018-01-24T07:12:30.460Z,101349.98
2018-01-24T07:14:58.770Z,101357.50
2018-01-24T07:17:27.106Z,101359.26
2018-01-24T07:19:56.206Z,101342.98
2018-01-24T07:22:25.423Z,101347.82
2018-01-24T07:24:53.748Z,101346.69
2018-01-24T07:27:22.060Z,101341.33
2018-01-24T07:29:51.134Z,101328.23
2018-01-24T07:32:19.465Z,101335.98
2018-01-24T07:34:47.766Z,101345.44
2018-01-24T07:37:16.097Z,101352.97
2018-01-24T07:39:44.437Z,101345.75
2018-01-24T07:42:12.850Z,101353.48
2018-01-24T07:44:41.178Z,101338.94
2018-01-24T07:47:09.511Z,101326.70
2018-01-24T07:49:37.832Z,101326.07
2018-01-24T07:52:06.972Z,101332.77
2018-01-24T07:54:35.534Z,101311.95
2018-01-24T07:57:03.840Z,101315.05
2018-01-24T07:59:32.194Z,101312.05
2018-01-24T08:02:00.484Z,101312.27
2018-01-24T08:04:28.781Z,101314.95
2018-01-24T08:06:57.159Z,101318.53
2018-01-24T08:09:25.491Z,101309.45
2018-01-24T08:11:54.575Z,101302.23
2018-01-24T08:14:22.879Z,101292.03
2018-01-24T08:16:51.954Z,101294.09
2018-01-24T08:19:20.287Z,101285.74
2018-01-24T08:21:48.613Z,101266.16
2018-01-24T08:24:16.907Z,101262.10
2018-01-24T08:26:45.267Z,101255.30
2018-01-24T08:29:13.634Z,101268.50
2018-01-24T08:31:41.979Z,101254.68
2018-01-24T08:34:11.079Z,101250.01
2018-01-24T08:36:39.418Z,101243.81
2018-01-24T08:39:08.587Z,101248.97
2018-01-24T08:41:37.056Z,101250.63
2018-01-24T08:44:05.389Z,101249.70
2018-01-24T08:46:33.685Z,101250.42
2018-01-24T08:49:02.735Z,101252.17
2018-01-24T08:51:31.124Z,101247.12
2018-01-24T08:53:59.677Z,101230.30
2018-01-24T08:56:28.783Z,101234.80
2018-01-24T08:58:57.160Z,101239.55
2018-01-24T09:01:26.254Z,101238.31
2018-01-24T09:04:18.529Z,101232.43
2018-01-24T09:07:10.527Z,101219.73
2018-01-24T09:10:02.514Z,101229.95
2018-01-24T09:12:54.326Z,101222.77
2018-01-24T09:15:46.099Z,101217.09
2018-01-24T09:18:37.964Z,101210.80
2018-01-24T09:21:27.287Z,101207.81
2018-01-24T09:24:10.723Z,101201.22
2018-01-24T09:26:39.035Z,101199.70
2018-01-24T09:29:07.334Z,101194.41
2018-01-24T09:31:35.989Z,101197.60
2018-01-24T09:34:04.285Z,101193.16
2018-01-24T09:36:32.587Z,101200.48
2018-01-24T09:39:01.641Z,101185.42
2018-01-24T09:41:29.929Z,101182.02
2018-01-24T09:43:58.252Z,101189.34
2018-01-24T09:46:27.315Z,101185.22
2018-01-24T09:48:55.637Z,101187.90
2018-01-24T09:51:23.950Z,101186.35
2018-01-24T09:53:53.125Z,101171.19
2018-01-24T09:56:21.678Z,101189.04
2018-01-24T09:58:50.746Z,101183.06
2018-01-24T10:01:19.096Z,101186.77
2018-01-24T10:03:47.399Z,101203.37
2018-01-24T10:06:15.865Z,101168.00
2018-01-24T10:08:44.181Z,101178.21
2018-01-24T10:11:12.496Z,101164.08
2018-01-24T10:13:41.556Z,101166.14
2018-01-24T10:16:10.313Z,101166.13
2018-01-24T10:18:38.687Z,101160.77
2018-01-24T10:21:07.095Z,101168.70
2018-01-24T10:23:35.657Z,101159.84
2018-01-24T10:26:04.725Z,101158.50
2018-01-24T10:28:33.039Z,101152.20
2018-01-24T10:31:01.353Z,101149.73
2018-01-24T10:33:30.171Z,101134.56
2018-01-24T10:35:58.473Z,101128.79
2018-01-24T10:38:26.813Z,101130.02
2018-01-24T10:40:55.173Z,101092.36
2018-01-24T10:43:23.521Z,101113.41
2018-01-24T10:45:51.829Z,101103.50
2018-01-24T10:48:20.142Z,101085.09
2018-01-24T10:50:48.503Z,101081.45
2018-01-24T10:53:16.801Z,101090.80
2018-01-24T10:55:45.147Z,101069.75
2018-01-24T10:58:18.821Z,101084.19
2018-01-24T11:00:47.123Z,101069.01
2018-01-24T11:03:16.195Z,101071.89
2018-01-24T11:05:44.501Z,101067.78
2018-01-24T11:08:13.811Z,101061.02
2018-01-24T11:10:43.035Z,101056.27
2018-01-24T11:13:11.345Z,101049.02
2018-01-24T11:15:39.636Z,101051.38
2018-01-24T11:18:07.961Z,101044.34
2018-01-24T11:20:37.091Z,101025.51
2018-01-24T11:23:05.382Z,101025.36
2018-01-24T11:25:34.337Z,101021.28
2018-01-24T11:28:02.757Z,101026.33
2018-01-24T11:30:31.065Z,101016.50
2018-01-24T11:32:59.369Z,101020.70
2018-01-24T11:35:27.721Z,101011.22
2018-01-24T11:37:56.023Z,101010.16
2018-01-24T11:40:24.479Z,101013.75
2018-01-24T11:42:52.804Z,100997.66
2018-01-24T11:45:21.904Z,100992.04
2018-01-24T11:47:51.015Z,100976.03
2018-01-24T11:50:20.304Z,100993.00
2018-01-24T11:52:48.638Z,100978.94
2018-01-24T11:55:17.021Z,100980.25
2018-01-24T11:57:45.323Z,100966.20
2018-01-24T12:00:13.649Z,100971.98
2018-01-24T12:02:42.734Z,100951.72
2018-01-24T12:05:11.060Z,100955.39
2018-01-24T12:07:39.520Z,100951.87
2018-01-24T12:10:07.859Z,100935.23
2018-01-24T12:12:36.194Z,100945.77
2018-01-24T12:15:04.523Z,100944.83
2018-01-24T12:17:32.847Z,100953.91
2018-01-24T12:20:01.156Z,100938.58
2018-01-24T12:22:29.586Z,100940.78
2018-01-24T12:24:58.316Z,100959.78
2018-01-24T12:27:26.651Z,100938.70
2018-01-24T12:29:54.962Z,100940.98
2018-01-24T12:32:24.024Z,100941.50
2018-01-24T12:34:52.356Z,100933.28
2018-01-24T12:37:20.798Z,100924.03
2018-01-24T12:39:49.212Z,100925.75
2018-01-24T12:42:18.282Z,100919.63
2018-01-24T12:44:47.404Z,100924.86
2018-01-24T12:47:16.470Z,100918.04
2018-01-24T12:49:44.799Z,100915.20
2018-01-24T12:52:13.196Z,100901.14
2018-01-24T12:54:42.468Z,100899.30
2018-01-24T12:57:11.535Z,100897.13
2018-01-24T12:59:39.896Z,100895.13
2018-01-24T13:02:08.285Z,100877.37
2018-01-24T13:04:36.645Z,100912.52
2018-01-24T13:07:05.718Z,100903.52
2018-01-24T13:09:35.638Z,100890.70
2018-01-24T13:12:04.699Z,100880.77
2018-01-24T13:14:33.079Z,100881.94
2018-01-24T13:17:01.920Z,100884.44
2018-01-24T13:19:30.227Z,100869.23
2018-01-24T13:21:58.540Z,100877.20
2018-01-24T13:24:26.855Z,100888.24
2018-01-24T13:26:56.957Z,100890.56
2018-01-24T13:29:25.298Z,100873.98
2018-01-24T13:31:53.646Z,100887.20
2018-01-24T13:34:21.996Z,100879.07
2018-01-24T13:36:50.326Z,100861.75
2018-01-24T13:39:18.674Z,100871.16
2018-01-24T13:41:46.992Z,100861.64
2018-01-24T13:44:15.316Z,100877.24
2018-01-24T13:46:43.654Z,100870.82
2018-01-24T13:49:11.998Z,100870.86
2018-01-24T13:51:40.325Z,100870.64
2018-01-24T13:54:09.498Z,100861.98
2018-01-24T13:56:37.820Z,100866.27
2018-01-24T13:59:06.140Z,100829.31
2018-01-24T14:01:34.483Z,100844.80
2018-01-24T14:04:03.714Z,100836.22
2018-01-24T14:06:32.019Z,100843.76
2018-01-24T14:09:00.342Z,100842.27
2018-01-24T14:11:28.676Z,100819.24
2018-01-24T14:13:56.975Z,100804.98
2018-01-24T14:16:26.051Z,100825.66
2018-01-24T14:18:54.356Z,100824.13
2018-01-24T14:21:23.459Z,100817.67
2018-01-24T14:23:52.416Z,100812.86
2018-01-24T14:26:21.611Z,100829.39
2018-01-24T14:28:50.009Z,100819.47
2018-01-24T14:31:18.323Z,100823.42
2018-01-24T14:33:48.039Z,100819.05
2018-01-24T14:36:17.118Z,100804.50
2018-01-24T14:38:45.464Z,100822.60
2018-01-24T14:41:14.496Z,100816.75
2018-01-24T14:43:42.820Z,100817.56
2018-01-24T14:46:11.168Z,100802.27
2018-01-24T14:48:40.231Z,100807.27
2018-01-24T14:51:08.530Z,100813.05
2018-01-24T14:53:36.878Z,100822.34
2018-01-24T14:56:05.264Z,100809.20
2018-01-24T14:58:33.622Z,100799.02
2018-01-24T15:01:02.020Z,100807.94
2018-01-24T15:03:30.356Z,100803.57
2018-01-24T15:05:58.686Z,100814.88
2018-01-24T15:08:27.532Z,100803.64
2018-01-24T15:10:57.072Z,100798.61
2018-01-24T15:13:25.421Z,100810.73
2018-01-24T15:15:53.742Z,100798.83
2018-01-24T15:18:22.066Z,100795.31
2018-01-24T15:20:50.368Z,100803.59
2018-01-24T15:23:19.461Z,100785.14
2018-01-24T15:25:47.753Z,100797.55
2018-01-24T15:28:17.518Z,100800.81
2018-01-24T15:30:45.908Z,100795.52
2018-01-24T15:33:14.227Z,100805.46
2018-01-24T15:35:43.352Z,100800.98
2018-01-24T15:38:11.672Z,100789.59
2018-01-24T15:40:40.019Z,100792.23
2018-01-24T15:43:09.088Z,100781.37
2018-01-24T15:45:38.170Z,100783.81
2018-01-24T15:48:06.480Z,100780.47
2018-01-24T15:50:35.721Z,100775.66
2018-01-24T15:53:04.072Z,100772.86
2018-01-24T15:55:33.189Z,100768.73
2018-01-24T15:58:01.553Z,100773.58
2018-01-24T16:00:30.639Z,100772.20
2018-01-24T16:02:59.856Z,100772.55
2018-01-24T16:05:29.360Z,100765.52
2018-01-24T16:07:59.230Z,100756.31
2018-01-24T16:10:27.594Z,100770.03
2018-01-24T16:12:56.013Z,100788.48
2018-01-24T16:15:24.374Z,100760.02
2018-01-24T16:17:52.711Z,100759.19
2018-01-24T16:20:21.767Z,100763.66
2018-01-24T16:22:50.075Z,100750.46
2018-01-24T16:25:18.438Z,100759.06
2018-01-24T16:27:46.766Z,100749.84
2018-01-24T16:30:15.183Z,100763.80
2018-01-24T16:32:43.494Z,100750.83
2018-01-24T16:35:12.133Z,100766.47
2018-01-24T16:37:40.822Z,100755.08
2018-01-24T16:40:09.150Z,100760.53
2018-01-24T16:42:38.381Z,100762.66
2018-01-24T16:45:07.418Z,100742.95
2018-01-24T16:47:35.734Z,100760.98
2018-01-24T16:50:05.184Z,100748.77
2018-01-24T16:52:33.580Z,100744.82
2018-01-24T16:55:01.893Z,100754.77
2018-01-24T16:57:30.201Z,100750.59
2018-01-24T16:59:58.504Z,100734.75
2018-01-24T17:02:26.842Z,100729.94
2018-01-24T17:04:55.161Z,100727.47
2018-01-24T17:07:24.277Z,100724.80
2018-01-24T17:09:52.583Z,100727.26
2018-01-24T17:12:20.916Z,100715.89
2018-01-24T17:14:49.230Z,100724.52
2018-01-24T17:17:17.545Z,100734.25
2018-01-24T17:19:45.871Z,100732.37
2018-01-24T17:22:14.966Z,100714.41
2018-01-24T17:24:44.096Z,100702.95
2018-01-24T17:27:12.392Z,100710.34
2018-01-24T17:29:40.758Z,100699.35
2018-01-24T17:32:09.076Z,100709.36
2018-01-24T17:34:37.378Z,100704.92
2018-01-24T17:37:05.745Z,100707.91
2018-01-24T17:39:34.396Z,100701.27
2018-01-24T17:42:03.378Z,100704.24
2018-01-24T17:44:32.481Z,100691.98
2018-01-24T17:47:00.800Z,100702.38
2018-01-24T17:49:29.175Z,100698.36
2018-01-24T17:51:57.499Z,100689.91
2018-01-24T17:54:25.840Z,100696.91
2018-01-24T17:56:54.139Z,100697.33
2018-01-24T17:59:22.436Z,100694.02
2018-01-24T18:01:50.796Z,100698.14
2018-01-24T18:04:19.166Z,100693.61
2018-01-24T18:06:47.508Z,100712.56
2018-01-24T18:09:16.622Z,100693.14
2018-01-24T18:11:44.945Z,100718.31
2018-01-24T18:14:13.995Z,100720.16
2018-01-24T18:16:43.744Z,100739.45
2018-01-24T18:19:12.106Z,100762.95
2018-01-24T18:21:40.413Z,100780.78
2018-01-24T18:24:08.753Z,100804.73
2018-01-24T18:26:37.815Z,100778.70
2018-01-24T18:29:06.867Z,100791.27
2018-01-24T18:31:35.172Z,100814.75
2018-01-24T18:34:03.942Z,100794.66
2018-01-24T18:36:32.313Z,100836.23
2018-01-24T18:39:00.707Z,100811.98
2018-01-24T18:41:29.090Z,100826.44
2018-01-24T18:43:57.400Z,100823.50
2018-01-24T18:46:25.710Z,100831.64
2018-01-24T18:48:54.029Z,100825.95
2018-01-24T18:51:22.341Z,100852.83
2018-01-24T18:53:50.642Z,100859.50
2018-01-24T18:56:18.975Z,100841.39
2018-01-24T18:58:47.309Z,100854.30
2018-01-24T19:01:15.636Z,100863.50
2018-01-24T19:03:43.957Z,100861.91
2018-01-24T19:06:12.248Z,100866.78
2018-01-24T19:08:40.563Z,100871.06
2018-01-24T19:11:09.619Z,100872.95
2018-01-24T19:13:38.005Z,100881.73
2018-01-24T19:16:06.312Z,100877.28
2018-01-24T19:18:35.561Z,100890.15
2018-01-24T19:21:03.858Z,100899.33
2018-01-24T19:23:32.140Z,100899.09
2018-01-24T19:26:00.515Z,100897.63
2018-01-24T19:28:28.889Z,100910.30
2018-01-24T19:30:57.190Z,100903.83
2018-01-24T19:33:25.492Z,100915.27
2018-01-24T19:35:53.805Z,100893.27
2018-01-24T19:38:22.891Z,100906.26
2018-01-24T19:40:51.923Z,100900.93
2018-01-24T19:43:20.261Z,100905.13
2018-01-24T19:45:48.602Z,100907.09
2018-01-24T19:48:17.759Z,100908.33
2018-01-24T19:50:46.554Z,100910.91
2018-01-24T19:53:14.849Z,100910.91
2018-01-24T19:55:44.588Z,100913.28
2018-01-24T19:58:12.883Z,100907.55
2018-01-24T20:00:41.242Z,100909.25
2018-01-24T20:03:09.562Z,100900.44
2018-01-24T20:05:37.890Z,100895.80
2018-01-24T20:08:06.963Z,100896.62
2018-01-24T20:10:35.285Z,100907.38
2018-01-24T20:13:03.623Z,100923.75
2018-01-24T20:15:31.979Z,100917.88
2018-01-24T20:18:00.379Z,100918.09
2018-01-24T20:20:28.749Z,100922.50
2018-01-24T20:22:57.045Z,100927.00
2018-01-24T20:25:25.391Z,100924.52
2018-01-24T20:27:53.698Z,100923.47
2018-01-24T20:30:22.008Z,100934.21
2018-01-24T20:32:50.350Z,100931.36
2018-01-24T20:35:18.709Z,100926.87
2018-01-24T20:37:47.013Z,100922.55
2018-01-24T20:40:15.315Z,100902.87
2018-01-24T20:42:43.628Z,100913.23
2018-01-24T20:45:12.693Z,100914.25
2018-01-24T20:47:40.988Z,100929.30
2018-01-24T20:50:09.276Z,100936.37
2018-01-24T20:52:37.684Z,100932.37
2018-01-24T20:55:07.113Z,100921.41
2018-01-24T20:57:35.397Z,100928.38
2018-01-24T21:00:03.735Z,100920.99
2018-01-24T21:02:32.036Z,100918.33
2018-01-24T21:05:00.433Z,100913.09
2018-01-24T21:07:28.723Z,100917.09
2018-01-24T21:09:57.099Z,100928.16
2018-01-24T21:12:25.393Z,100924.14
2018-01-24T21:14:53.690Z,100921.85
2018-01-24T21:17:21.997Z,100928.73
2018-01-24T21:19:50.325Z,100928.19
2018-01-24T21:22:18.623Z,100917.31
2018-01-24T21:24:46.968Z,100900.70
2018-01-24T21:27:16.020Z,100902.03
2018-01-24T21:30:05.003Z,100910.52
2018-01-24T21:32:51.212Z,100912.35
2018-01-24T21:35:38.032Z,100899.97
2018-01-24T21:38:07.095Z,100890.28
2018-01-24T21:40:35.392Z,100876.88
2018-01-24T21:43:04.443Z,100879.64
2018-01-24T21:45:32.724Z,100888.45
2018-01-24T21:48:01.904Z,100880.74
2018-01-24T21:50:30.190Z,100863.03
2018-01-24T21:52:58.536Z,100879.31
2018-01-24T21:55:26.839Z,100897.95
2018-01-24T21:57:55.146Z,100928.73
2018-01-24T22:00:23.480Z,100935.06
2018-01-24T22:02:52.554Z,100919.42
2018-01-24T22:05:20.854Z,100918.69
2018-01-24T22:07:49.918Z,100917.86
2018-01-24T22:10:18.225Z,100939.74
2018-01-24T22:12:46.558Z,100959.41
2018-01-24T22:15:14.851Z,100985.70
2018-01-24T22:17:43.258Z,100985.22
2018-01-24T22:20:11.580Z,100994.94
2018-01-24T22:22:39.882Z,100992.78
2018-01-24T22:25:08.193Z,100974.48
2018-01-24T22:27:36.470Z,100960.44
2018-01-24T22:30:04.766Z,100975.98
2018-01-24T22:32:33.056Z,100974.89
2018-01-24T22:35:01.361Z,100970.58
2018-01-24T22:37:30.420Z,100953.38
2018-01-24T22:39:58.732Z,100973.33
2018-01-24T22:42:27.823Z,100970.34
2018-01-24T22:44:56.118Z,100987.14
2018-01-24T22:47:25.186Z,100991.91
2018-01-24T22:49:53.482Z,100995.13
2018-01-24T22:52:21.792Z,100998.53
2018-01-24T22:54:50.092Z,100991.88
2018-01-24T22:57:18.376Z,100981.73
2018-01-24T22:59:46.668Z,100985.13
2018-01-24T23:02:15.057Z,101007.16
2018-01-24T23:04:43.383Z,101000.50
2018-01-24T23:07:11.677Z,100998.36
2018-01-24T23:09:40.740Z,101003.19
2018-01-24T23:12:09.023Z,101006.26
2018-01-24T23:14:37.331Z,101002.36
2018-01-24T23:17:05.643Z,101034.30
2018-01-24T23:19:34.053Z,101036.55
2018-01-24T23:22:02.352Z,101028.56
2018-01-24T23:24:30.655Z,101046.51
2018-01-24T23:26:59.726Z,101037.52
2018-01-24T23:29:28.025Z,101031.18
2018-01-24T23:31:56.417Z,101039.91
2018-01-24T23:34:25.496Z,101039.63
2018-01-24T23:36:53.792Z,101018.02
2018-01-24T23:39:22.190Z,101011.86
2018-01-24T23:41:51.238Z,101009.38
2018-01-24T23:44:19.534Z,101033.75
2018-01-24T23:46:47.826Z,101034.08
2018-01-24T23:49:16.744Z,101027.84
2018-01-24T23:51:45.818Z,101037.56
2018-01-24T23:54:14.117Z,101031.00
2018-01-24T23:56:43.192Z,101029.26
2018-01-24T23:59:11.478Z,101023.52
